createdAt,value
2022-12-11T00:00:05.713Z,4.7
2022-12-11T00:02:03.559Z,4.6
2022-12-11T00:04:03.004Z,4.6
2022-12-11T00:06:05.964Z,4.6
2022-12-11T00:08:03.238Z,4.6
2022-12-11T00:10:04.511Z,4.6
2022-12-11T00:12:04.813Z,4.6
2022-12-11T00:14:02.982Z,4.6
2022-12-11T00:16:02.951Z,4.6
2022-12-11T00:18:02.894Z,4.6
2022-12-11T00:20:03.048Z,4.6
2022-12-11T00:22:03.076Z,4.6
2022-12-11T00:24:03.076Z,4.6
2022-12-11T00:26:06.884Z,4.6
2022-12-11T00:28:02.950Z,4.6
2022-12-11T00:30:02.892Z,4.6
2022-12-11T00:32:02.995Z,4.6
2022-12-11T00:34:03.989Z,4.6
2022-12-11T00:36:03.864Z,4.6
2022-12-11T00:38:02.926Z,4.5
2022-12-11T00:40:03.655Z,4.5
2022-12-11T00:42:02.996Z,4.5
2022-12-11T00:44:03.263Z,4.4
2022-12-11T00:46:04.258Z,4.5
2022-12-11T00:48:03.621Z,4.5
2022-12-11T00:50:03.597Z,4.4
2022-12-11T00:52:02.908Z,4.4
2022-12-11T00:54:04.530Z,4.4
2022-12-11T00:56:09.510Z,4.4
2022-12-11T00:58:03.135Z,4.4
2022-12-11T01:00:03.954Z,4.4
2022-12-11T01:02:03.129Z,4.3
2022-12-11T01:04:03.129Z,4.3
2022-12-11T01:06:02.950Z,4.3
2022-12-11T01:08:04.526Z,4.3
2022-12-11T01:10:12.210Z,4.3
2022-12-11T01:12:02.979Z,4.3
2022-12-11T01:14:03.064Z,4.3
2022-12-11T01:16:08.242Z,4.3
2022-12-11T01:18:02.947Z,4.3
2022-12-11T01:20:04.160Z,4.3
2022-12-11T01:22:03.673Z,4.3
2022-12-11T01:24:02.920Z,4.4
2022-12-11T01:26:08.068Z,4.4
2022-12-11T01:28:02.912Z,4.4
2022-12-11T01:30:02.977Z,4.4
2022-12-11T01:32:03.166Z,4.4
2022-12-11T01:34:03.131Z,4.4
2022-12-11T01:36:07.555Z,4.4
2022-12-11T01:38:02.963Z,4.4
2022-12-11T01:40:04.394Z,4.4
2022-12-11T01:42:02.975Z,4.4
2022-12-11T01:44:06.833Z,4.4
2022-12-11T01:46:03.303Z,4.4
2022-12-11T01:48:06.831Z,4.4
2022-12-11T01:50:03.854Z,4.3
2022-12-11T01:52:09.346Z,4.3
2022-12-11T01:54:08.185Z,4.3
2022-12-11T01:56:05.330Z,4.3
2022-12-11T01:58:04.326Z,4.3
2022-12-11T02:00:03.418Z,4.3
2022-12-11T02:02:06.709Z,4.3
2022-12-11T02:04:04.130Z,4.3
2022-12-11T02:06:03.725Z,4.3
2022-12-11T02:08:04.484Z,4.3
2022-12-11T02:10:03.594Z,4.3
2022-12-11T02:12:08.520Z,4.3
2022-12-11T02:14:10.858Z,4.3
2022-12-11T02:16:14.151Z,4.3
2022-12-11T02:18:14.668Z,4.3
2022-12-11T02:20:11.923Z,4.3
2022-12-11T02:22:11.859Z,4.2
2022-12-11T02:24:21.942Z,4.3
2022-12-11T02:26:17.900Z,4.3
2022-12-11T02:28:11.349Z,4.3
2022-12-11T02:30:07.207Z,4.3
2022-12-11T02:32:09.532Z,4.2
2022-12-11T02:34:09.062Z,4.3
2022-12-11T02:36:05.353Z,4.2
2022-12-11T02:38:08.760Z,4.2
2022-12-11T02:40:06.973Z,4.2
2022-12-11T02:42:05.713Z,4.2
2022-12-11T02:44:05.121Z,4.2
2022-12-11T02:46:06.433Z,4.2
2022-12-11T02:48:05.990Z,4.2
2022-12-11T02:50:07.274Z,4.1
2022-12-11T02:52:06.581Z,4.1
2022-12-11T02:54:04.900Z,4.1
2022-12-11T02:56:10.375Z,4.1
2022-12-11T02:58:07.317Z,4.1
2022-12-11T03:00:05.281Z,4.1
2022-12-11T03:02:04.847Z,4.1
2022-12-11T03:04:04.606Z,4.1
2022-12-11T03:06:03.558Z,4.1
2022-12-11T03:08:04.038Z,4.1
2022-12-11T03:10:04.291Z,4.1
2022-12-11T03:12:03.187Z,4.1
2022-12-11T03:14:04.464Z,4.1
2022-12-11T03:16:12.393Z,4.1
2022-12-11T03:18:10.878Z,4.1
2022-12-11T03:20:11.629Z,4.1
2022-12-11T03:22:09.737Z,4.1
2022-12-11T03:24:08.803Z,4.1
2022-12-11T03:26:05.785Z,4.1
2022-12-11T03:28:11.096Z,4.1
2022-12-11T03:30:08.037Z,4.1
2022-12-11T03:32:08.873Z,4.1
2022-12-11T03:34:10.974Z,4.1
2022-12-11T03:36:09.500Z,4.1
2022-12-11T03:38:08.415Z,4.0
2022-12-11T03:40:10.146Z,4.0
2022-12-11T03:42:06.713Z,4.0
2022-12-11T03:44:03.959Z,4.0
2022-12-11T03:46:03.874Z,4.0
2022-12-11T03:48:04.259Z,4.0
2022-12-11T03:50:06.046Z,4.1
2022-12-11T03:52:04.992Z,4.1
2022-12-11T03:54:03.493Z,4.1
2022-12-11T03:56:05.234Z,4.1
2022-12-11T03:58:03.632Z,4.1
2022-12-11T04:00:05.356Z,4.1
2022-12-11T04:02:10.257Z,4.1
2022-12-11T04:04:03.607Z,4.1
2022-12-11T04:06:03.029Z,4.1
2022-12-11T04:08:03.287Z,4.1
2022-12-11T04:10:04.207Z,4.1
2022-12-11T04:12:03.815Z,4.1
2022-12-11T04:14:12.359Z,4.1
2022-12-11T04:16:02.956Z,4.1
2022-12-11T04:18:12.868Z,4.1
2022-12-11T04:20:13.226Z,4.1
2022-12-11T04:22:12.755Z,4.1
2022-12-11T04:24:12.898Z,4.1
2022-12-11T04:26:08.235Z,4.1
2022-12-11T04:28:02.893Z,4.1
2022-12-11T04:30:03.241Z,4.1
2022-12-11T04:32:03.744Z,4.1
2022-12-11T04:34:02.910Z,4.1
2022-12-11T04:36:03.142Z,4.1
2022-12-11T04:38:03.015Z,4.1
2022-12-11T04:40:04.374Z,4.1
2022-12-11T04:42:02.884Z,4.1
2022-12-11T04:44:03.636Z,4.1
2022-12-11T04:46:04.361Z,4.1
2022-12-11T04:48:03.659Z,4.1
2022-12-11T04:50:04.914Z,4.1
2022-12-11T04:52:03.741Z,4.1
2022-12-11T04:54:02.895Z,4.1
2022-12-11T04:56:06.042Z,4.1
2022-12-11T04:58:02.935Z,4.1
2022-12-11T05:00:04.634Z,4.0
2022-12-11T05:02:03.356Z,4.0
2022-12-11T05:04:02.987Z,4.0
2022-12-11T05:06:03.509Z,3.9
2022-12-11T05:08:03.269Z,3.9
2022-12-11T05:10:03.970Z,4.0
2022-12-11T05:12:04.107Z,4.0
2022-12-11T05:14:02.916Z,3.9
2022-12-11T05:16:04.844Z,4.0
2022-12-11T05:18:02.911Z,4.0
2022-12-11T05:20:04.402Z,4.0
2022-12-11T05:22:02.946Z,4.0
2022-12-11T05:24:04.158Z,4.0
2022-12-11T05:26:05.701Z,4.1
2022-12-11T05:28:02.888Z,4.0
2022-12-11T05:30:02.963Z,4.1
2022-12-11T05:32:03.032Z,4.1
2022-12-11T05:34:03.169Z,4.1
2022-12-11T05:36:04.506Z,4.1
2022-12-11T05:38:02.951Z,4.1
2022-12-11T05:40:05.835Z,4.1
2022-12-11T05:42:02.894Z,4.2
2022-12-11T05:44:03.079Z,4.2
2022-12-11T05:46:09.600Z,4.2
2022-12-11T05:48:03.167Z,4.2
2022-12-11T05:50:03.015Z,4.2
2022-12-11T05:52:03.485Z,4.2
2022-12-11T05:54:03.827Z,4.2
2022-12-11T05:56:03.520Z,4.2
2022-12-11T05:58:03.897Z,4.3
2022-12-11T06:00:03.099Z,4.2
2022-12-11T06:02:03.092Z,4.2
2022-12-11T06:04:05.339Z,4.2
2022-12-11T06:06:03.751Z,4.3
2022-12-11T06:08:03.222Z,4.2
2022-12-11T06:10:03.108Z,4.2
2022-12-11T06:12:03.113Z,4.2
2022-12-11T06:14:04.619Z,4.3
2022-12-11T06:16:04.401Z,4.2
2022-12-11T06:18:02.907Z,4.2
2022-12-11T06:20:03.287Z,4.3
2022-12-11T06:22:03.023Z,4.3
2022-12-11T06:24:05.222Z,4.3
2022-12-11T06:26:05.195Z,4.3
2022-12-11T06:28:02.885Z,4.3
2022-12-11T06:30:03.954Z,4.3
2022-12-11T06:32:03.065Z,4.3
2022-12-11T06:34:03.796Z,4.3
2022-12-11T06:36:05.002Z,4.3
2022-12-11T06:38:03.543Z,4.3
2022-12-11T06:40:03.893Z,4.3
2022-12-11T06:42:02.877Z,4.3
2022-12-11T06:44:03.186Z,4.3
2022-12-11T06:46:04.625Z,4.3
2022-12-11T06:48:03.784Z,4.3
2022-12-11T06:50:03.023Z,4.3
2022-12-11T06:52:02.905Z,4.3
2022-12-11T06:54:02.951Z,4.3
2022-12-11T06:56:04.997Z,4.3
2022-12-11T06:58:02.942Z,4.3
2022-12-11T07:00:03.211Z,4.3
2022-12-11T07:02:03.600Z,4.3
2022-12-11T07:04:03.486Z,4.4
2022-12-11T07:06:03.807Z,4.4
2022-12-11T07:08:03.400Z,4.4
2022-12-11T07:10:07.891Z,4.4
2022-12-11T07:12:03.656Z,4.4
2022-12-11T07:14:03.723Z,4.4
2022-12-11T07:16:10.159Z,4.4
2022-12-11T07:18:02.740Z,4.4
2022-12-11T07:20:04.618Z,4.4
2022-12-11T07:22:02.938Z,4.4
2022-12-11T07:24:04.457Z,4.4
2022-12-11T07:26:06.086Z,4.4
2022-12-11T07:28:02.936Z,4.4
2022-12-11T07:30:02.944Z,4.4
2022-12-11T07:32:03.947Z,4.4
2022-12-11T07:34:06.166Z,4.4
2022-12-11T07:36:05.035Z,4.4
2022-12-11T07:38:03.080Z,4.3
2022-12-11T07:40:02.899Z,4.4
2022-12-11T07:42:02.884Z,4.3
2022-12-11T07:44:04.050Z,4.3
2022-12-11T07:46:04.007Z,4.3
2022-12-11T07:48:03.108Z,4.3
2022-12-11T07:50:02.928Z,4.3
2022-12-11T07:52:02.899Z,4.3
2022-12-11T07:54:06.076Z,4.3
2022-12-11T07:56:02.961Z,4.3
2022-12-11T07:58:02.937Z,4.2
2022-12-11T08:00:04.762Z,4.2
2022-12-11T08:02:03.073Z,4.2
2022-12-11T08:04:04.853Z,4.2
2022-12-11T08:06:03.157Z,4.2
2022-12-11T08:08:03.804Z,4.2
2022-12-11T08:10:03.548Z,4.2
2022-12-11T08:12:03.303Z,4.2
2022-12-11T08:14:04.908Z,4.2
2022-12-11T08:16:05.627Z,4.2
2022-12-11T08:18:02.978Z,4.1
2022-12-11T08:20:03.065Z,4.2
2022-12-11T08:22:02.856Z,4.1
2022-12-11T08:24:03.221Z,4.1
2022-12-11T08:26:04.279Z,4.1
2022-12-11T08:28:03.083Z,4.1
2022-12-11T08:30:03.119Z,4.1
2022-12-11T08:32:06.385Z,4.0
2022-12-11T08:34:02.887Z,3.9
2022-12-11T08:36:05.353Z,3.9
2022-12-11T08:38:02.935Z,3.9
2022-12-11T08:40:03.279Z,3.8
2022-12-11T08:42:02.906Z,3.8
2022-12-11T08:44:02.950Z,3.8
2022-12-11T08:46:02.989Z,3.7
2022-12-11T08:48:03.671Z,3.7
2022-12-11T08:50:03.829Z,3.7
2022-12-11T08:52:05.138Z,3.7
2022-12-11T08:54:02.878Z,3.7
2022-12-11T08:56:03.944Z,3.7
2022-12-11T08:58:03.325Z,3.7
2022-12-11T09:00:03.282Z,3.7
2022-12-11T09:02:03.102Z,3.7
2022-12-11T09:04:02.959Z,3.7
2022-12-11T09:06:05.634Z,3.8
2022-12-11T09:08:02.979Z,3.8
2022-12-11T09:10:04.259Z,3.8
2022-12-11T09:12:04.244Z,3.8
2022-12-11T09:14:07.609Z,3.8
2022-12-11T09:16:05.500Z,3.8
2022-12-11T09:18:03.472Z,3.8
2022-12-11T09:20:03.143Z,3.8
2022-12-11T09:22:03.542Z,3.8
2022-12-11T09:24:04.325Z,3.8
2022-12-11T09:26:05.512Z,3.8
2022-12-11T09:28:02.894Z,3.8
2022-12-11T09:30:03.174Z,3.8
2022-12-11T09:32:02.911Z,3.8
2022-12-11T09:34:05.658Z,3.8
2022-12-11T09:36:05.044Z,3.8
2022-12-11T09:38:02.962Z,3.8
2022-12-11T09:40:07.512Z,3.8
2022-12-11T09:42:09.414Z,3.8
2022-12-11T09:44:13.778Z,3.8
2022-12-11T09:46:07.462Z,3.8
2022-12-11T09:48:04.100Z,3.8
2022-12-11T09:50:11.345Z,3.8
2022-12-11T09:52:12.923Z,3.8
2022-12-11T09:54:04.919Z,3.8
2022-12-11T09:56:12.937Z,3.8
2022-12-11T09:58:14.566Z,3.8
2022-12-11T10:00:12.859Z,3.8
2022-12-11T10:02:15.421Z,3.8
2022-12-11T10:04:19.118Z,3.9
2022-12-11T10:06:11.595Z,3.9
2022-12-11T10:08:12.802Z,3.9
2022-12-11T10:10:13.759Z,3.9
2022-12-11T10:12:18.868Z,3.9
2022-12-11T10:14:12.470Z,3.9
2022-12-11T10:16:09.715Z,3.9
2022-12-11T10:18:07.261Z,3.9
2022-12-11T10:20:16.748Z,3.9
2022-12-11T10:22:03.463Z,3.9
2022-12-11T10:24:10.902Z,3.9
2022-12-11T10:26:07.229Z,3.9
2022-12-11T10:28:13.581Z,3.9
2022-12-11T10:30:15.864Z,3.9
2022-12-11T10:32:05.074Z,3.9
2022-12-11T10:34:05.246Z,3.9
2022-12-11T10:36:03.383Z,3.9
2022-12-11T10:38:13.987Z,3.9
2022-12-11T10:40:03.087Z,3.9
2022-12-11T10:42:16.369Z,3.9
2022-12-11T10:44:17.289Z,3.8
2022-12-11T10:46:04.229Z,3.9
2022-12-11T10:48:04.051Z,3.8
2022-12-11T10:50:04.744Z,3.8
2022-12-11T10:52:11.737Z,3.8
2022-12-11T10:54:09.753Z,3.8
2022-12-11T10:56:04.159Z,3.8
2022-12-11T10:58:06.223Z,3.8
2022-12-11T11:00:06.216Z,3.8
2022-12-11T11:02:04.491Z,3.8
2022-12-11T11:04:07.123Z,3.8
2022-12-11T11:06:06.719Z,3.7
2022-12-11T11:08:13.157Z,3.7
2022-12-11T11:10:14.448Z,3.7
2022-12-11T11:12:07.869Z,3.7
2022-12-11T11:14:13.683Z,3.7
2022-12-11T11:16:05.815Z,3.7
2022-12-11T11:18:11.947Z,3.7
2022-12-11T11:20:13.122Z,3.7
2022-12-11T11:22:07.276Z,3.7
2022-12-11T11:24:04.176Z,3.7
2022-12-11T11:26:08.673Z,3.7
2022-12-11T11:28:05.284Z,3.7
2022-12-11T11:30:05.958Z,3.7
2022-12-11T11:32:16.741Z,3.7
2022-12-11T11:34:10.077Z,3.7
2022-12-11T11:36:06.880Z,3.7
2022-12-11T11:38:14.842Z,3.7
2022-12-11T11:40:12.131Z,3.7
2022-12-11T11:42:11.016Z,3.7
2022-12-11T11:44:07.880Z,3.7
2022-12-11T11:46:09.343Z,3.6
2022-12-11T11:48:13.309Z,3.6
2022-12-11T11:50:09.246Z,3.6
2022-12-11T11:52:12.581Z,3.6
2022-12-11T11:54:16.189Z,3.6
2022-12-11T11:56:12.748Z,3.6
2022-12-11T11:58:07.831Z,3.6
2022-12-11T12:00:10.399Z,3.6
2022-12-11T12:02:13.013Z,3.6
2022-12-11T12:04:04.764Z,3.6
2022-12-11T12:06:14.953Z,3.6
2022-12-11T12:08:14.623Z,3.5
2022-12-11T12:10:15.646Z,3.5
2022-12-11T12:12:17.163Z,3.4
2022-12-11T12:14:43.522Z,3.4
2022-12-11T12:16:17.688Z,3.4
2022-12-11T12:18:12.460Z,3.3
2022-12-11T12:20:10.678Z,3.3
2022-12-11T12:22:10.519Z,3.3
2022-12-11T12:24:15.889Z,3.3
2022-12-11T12:26:09.712Z,3.2
2022-12-11T12:28:15.626Z,3.3
2022-12-11T12:30:06.462Z,3.2
2022-12-11T12:32:13.390Z,3.2
2022-12-11T12:34:10.676Z,3.2
2022-12-11T12:36:12.052Z,3.2
2022-12-11T12:38:07.498Z,3.2
2022-12-11T12:40:13.363Z,3.2
2022-12-11T12:42:11.122Z,3.2
2022-12-11T12:44:15.024Z,3.2
2022-12-11T12:46:13.484Z,3.2
2022-12-11T12:48:03.688Z,3.2
2022-12-11T12:50:05.247Z,3.2
2022-12-11T12:52:05.540Z,3.2
2022-12-11T12:54:12.234Z,3.2
2022-12-11T12:56:04.970Z,3.2
2022-12-11T12:58:06.009Z,3.2
2022-12-11T13:00:09.563Z,3.2
2022-12-11T13:02:04.984Z,3.2
2022-12-11T13:04:05.286Z,3.2
2022-12-11T13:06:06.974Z,3.2
2022-12-11T13:08:06.448Z,3.2
2022-12-11T13:10:07.553Z,3.1
2022-12-11T13:12:14.482Z,3.1
2022-12-11T13:14:05.952Z,3.1
2022-12-11T13:16:21.953Z,3.2
2022-12-11T13:18:07.904Z,3.2
2022-12-11T13:20:11.920Z,3.2
2022-12-11T13:22:15.120Z,3.2
2022-12-11T13:24:15.657Z,3.1
2022-12-11T13:26:05.122Z,3.1
2022-12-11T13:28:08.428Z,3.1
2022-12-11T13:30:07.975Z,3.1
2022-12-11T13:32:15.840Z,3.1
2022-12-11T13:34:17.230Z,3.1
2022-12-11T13:36:24.795Z,3.1
2022-12-11T13:38:08.512Z,3.0
2022-12-11T13:40:08.117Z,2.9
2022-12-11T13:42:07.057Z,2.9
2022-12-11T13:44:05.376Z,2.9
2022-12-11T13:46:05.789Z,2.8
2022-12-11T13:48:03.138Z,2.8
2022-12-11T13:50:15.389Z,2.8
2022-12-11T13:52:04.565Z,2.7
2022-12-11T13:54:05.717Z,2.7
2022-12-11T13:56:04.852Z,2.7
2022-12-11T13:58:03.116Z,2.8
2022-12-11T14:00:02.950Z,2.8
2022-12-11T14:02:10.628Z,2.8
2022-12-11T14:04:07.134Z,2.8
2022-12-11T14:06:04.383Z,2.8
2022-12-11T14:08:08.507Z,2.8
2022-12-11T14:10:09.146Z,2.8
2022-12-11T14:12:03.527Z,2.8
2022-12-11T14:14:07.160Z,2.8
2022-12-11T14:16:04.091Z,2.8
2022-12-11T14:18:05.498Z,2.8
2022-12-11T14:20:07.635Z,2.7
2022-12-11T14:22:05.379Z,2.7
2022-12-11T14:24:06.117Z,2.7
2022-12-11T14:26:12.412Z,2.7
2022-12-11T14:28:03.365Z,2.7
2022-12-11T14:30:12.240Z,2.8
2022-12-11T14:32:07.170Z,2.7
2022-12-11T14:34:09.777Z,2.7
2022-12-11T14:36:04.152Z,2.7
2022-12-11T14:38:09.246Z,2.8
2022-12-11T14:40:09.154Z,2.7
2022-12-11T14:42:08.477Z,2.7
2022-12-11T14:44:07.086Z,2.8
2022-12-11T14:46:08.224Z,2.8
2022-12-11T14:48:08.294Z,2.7
2022-12-11T14:50:07.006Z,2.7
2022-12-11T14:52:04.826Z,2.7
2022-12-11T14:54:04.974Z,2.7
2022-12-11T14:56:06.540Z,2.7
2022-12-11T14:58:07.285Z,2.7
2022-12-11T15:00:05.693Z,2.7
2022-12-11T15:02:22.227Z,2.7
2022-12-11T15:04:06.051Z,2.7
2022-12-11T15:06:14.197Z,2.7
2022-12-11T15:08:14.395Z,2.8
2022-12-11T15:10:03.515Z,2.8
2022-12-11T15:12:11.767Z,2.8
2022-12-11T15:14:05.895Z,2.8
2022-12-11T15:16:05.596Z,2.8
2022-12-11T15:18:13.202Z,2.8
2022-12-11T15:20:08.011Z,2.8
2022-12-11T15:22:04.255Z,2.8
2022-12-11T15:24:06.570Z,2.8
2022-12-11T15:26:03.188Z,2.9
2022-12-11T15:28:02.942Z,2.9
2022-12-11T15:30:26.298Z,2.9
2022-12-11T15:32:14.745Z,2.9
2022-12-11T15:34:03.168Z,2.9
2022-12-11T15:36:06.312Z,2.9
2022-12-11T15:38:03.143Z,2.9
2022-12-11T15:40:04.979Z,2.9
2022-12-11T15:42:03.237Z,3.0
2022-12-11T15:44:05.048Z,3.0
2022-12-11T15:46:05.251Z,2.9
2022-12-11T15:48:03.081Z,3.0
2022-12-11T15:50:13.632Z,3.1
2022-12-11T15:52:03.004Z,3.1
2022-12-11T15:54:03.104Z,3.1
2022-12-11T15:56:03.947Z,3.1
2022-12-11T15:58:06.423Z,3.1
2022-12-11T16:00:05.145Z,3.1
2022-12-11T16:02:03.490Z,3.1
2022-12-11T16:04:05.077Z,3.1
2022-12-11T16:06:03.095Z,3.1
2022-12-11T16:08:02.913Z,3.1
2022-12-11T16:10:04.168Z,3.1
2022-12-11T16:12:02.889Z,3.1
2022-12-11T16:14:04.032Z,3.1
2022-12-11T16:16:02.915Z,3.1
2022-12-11T16:18:05.374Z,3.1
2022-12-11T16:20:02.915Z,3.1
2022-12-11T16:22:03.382Z,3.1
2022-12-11T16:24:02.909Z,3.1
2022-12-11T16:26:08.846Z,3.1
2022-12-11T16:28:03.814Z,3.1
2022-12-11T16:30:03.213Z,3.1
2022-12-11T16:32:02.959Z,3.2
2022-12-11T16:34:03.115Z,3.2
2022-12-11T16:36:03.602Z,3.2
2022-12-11T16:38:02.959Z,3.2
2022-12-11T16:40:02.929Z,3.2
2022-12-11T16:42:04.017Z,3.2
2022-12-11T16:44:03.377Z,3.2
2022-12-11T16:46:03.325Z,3.2
2022-12-11T16:48:05.217Z,3.2
2022-12-11T16:50:03.543Z,3.2
2022-12-11T16:52:02.922Z,3.2
2022-12-11T16:54:03.850Z,3.2
2022-12-11T16:56:05.122Z,3.2
2022-12-11T16:58:03.101Z,3.3
2022-12-11T17:00:05.016Z,3.3
2022-12-11T17:02:03.053Z,3.3
2022-12-11T17:04:02.935Z,3.3
2022-12-11T17:06:07.336Z,3.3
2022-12-11T17:08:03.013Z,3.4
2022-12-11T17:10:04.617Z,3.4
2022-12-11T17:12:03.042Z,3.4
2022-12-11T17:14:03.481Z,3.4
2022-12-11T17:16:05.691Z,3.5
2022-12-11T17:18:03.112Z,3.6
2022-12-11T17:20:03.795Z,3.6
2022-12-11T17:22:04.145Z,3.6
2022-12-11T17:24:02.910Z,3.6
2022-12-11T17:26:04.524Z,3.7
2022-12-11T17:28:03.075Z,3.7
2022-12-11T17:30:03.990Z,3.7
2022-12-11T17:32:03.361Z,3.7
2022-12-11T17:34:03.725Z,3.8
2022-12-11T17:36:04.621Z,3.8
2022-12-11T17:38:03.672Z,3.8
2022-12-11T17:40:03.121Z,3.8
2022-12-11T17:42:03.848Z,3.8
2022-12-11T17:44:02.925Z,3.9
2022-12-11T17:46:05.033Z,3.9
2022-12-11T17:48:02.902Z,4.0
2022-12-11T17:50:03.147Z,4.0
2022-12-11T17:52:03.089Z,4.1
2022-12-11T17:54:04.233Z,4.1
2022-12-11T17:56:05.286Z,4.1
2022-12-11T17:58:03.822Z,4.2
2022-12-11T18:00:02.917Z,4.2
2022-12-11T18:02:03.055Z,4.2
2022-12-11T18:04:03.557Z,4.3
2022-12-11T18:06:07.394Z,4.3
2022-12-11T18:08:03.577Z,4.3
2022-12-11T18:10:03.211Z,4.4
2022-12-11T18:12:02.911Z,4.4
2022-12-11T18:14:03.884Z,4.4
2022-12-11T18:16:05.308Z,4.4
2022-12-11T18:18:03.997Z,4.4
2022-12-11T18:20:02.927Z,4.5
2022-12-11T18:22:03.757Z,4.6
2022-12-11T18:24:03.581Z,4.6
2022-12-11T18:26:02.971Z,4.6
2022-12-11T18:28:02.892Z,4.7
2022-12-11T18:30:03.398Z,4.7
2022-12-11T18:32:03.076Z,4.8
2022-12-11T18:34:04.926Z,4.8
2022-12-11T18:36:04.137Z,4.8
2022-12-11T18:38:03.374Z,4.8
2022-12-11T18:40:04.292Z,4.8
2022-12-11T18:42:31.914Z,4.8
2022-12-11T18:44:06.653Z,4.8
2022-12-11T18:46:05.653Z,4.8
2022-12-11T18:48:02.891Z,4.9
2022-12-11T18:50:07.600Z,4.9
2022-12-11T18:52:03.295Z,4.9
2022-12-11T18:54:03.098Z,4.9
2022-12-11T18:56:08.249Z,4.9
2022-12-11T18:58:03.263Z,4.9
2022-12-11T19:00:06.888Z,5.0
2022-12-11T19:02:04.023Z,5.0
2022-12-11T19:04:05.603Z,5.1
2022-12-11T19:06:11.415Z,5.1
2022-12-11T19:08:04.001Z,5.1
2022-12-11T19:10:03.833Z,5.1
2022-12-11T19:12:02.898Z,5.1
2022-12-11T19:14:05.192Z,5.1
2022-12-11T19:16:03.105Z,5.1
2022-12-11T19:18:02.951Z,5.1
2022-12-11T19:20:25.178Z,5.1
2022-12-11T19:22:04.381Z,5.1
2022-12-11T19:24:03.854Z,5.1
2022-12-11T19:26:03.566Z,5.1
2022-12-11T19:28:03.076Z,5.2
2022-12-11T19:30:03.169Z,5.2
2022-12-11T19:32:04.212Z,5.2
2022-12-11T19:34:04.107Z,5.1
2022-12-11T19:36:03.912Z,5.1
2022-12-11T19:38:03.022Z,5.0
2022-12-11T19:40:03.719Z,4.9
2022-12-11T19:42:02.969Z,4.9
2022-12-11T19:44:02.955Z,4.9
2022-12-11T19:46:04.682Z,4.8
2022-12-11T19:48:03.332Z,4.9
2022-12-11T19:50:03.050Z,4.9
2022-12-11T19:52:04.116Z,4.9
2022-12-11T19:54:03.919Z,4.9
2022-12-11T19:56:04.635Z,4.9
2022-12-11T19:58:03.256Z,4.9
2022-12-11T20:00:02.996Z,4.8
2022-12-11T20:02:03.073Z,4.8
2022-12-11T20:04:05.379Z,4.8
2022-12-11T20:06:05.877Z,4.9
2022-12-11T20:08:35.353Z,4.9
2022-12-11T20:10:03.302Z,5.0
2022-12-11T20:12:05.666Z,5.1
2022-12-11T20:14:04.629Z,5.1
2022-12-11T20:16:07.515Z,5.1
2022-12-11T20:18:03.290Z,5.1
2022-12-11T20:20:03.159Z,5.0
2022-12-11T20:22:03.341Z,5.1
2022-12-11T20:24:02.931Z,5.1
2022-12-11T20:26:06.857Z,5.1
2022-12-11T20:28:03.077Z,5.1
2022-12-11T20:30:03.667Z,5.1
2022-12-11T20:32:03.022Z,5.1
2022-12-11T20:34:04.738Z,5.1
2022-12-11T20:36:07.688Z,5.1
2022-12-11T20:38:03.467Z,5.1
2022-12-11T20:40:03.577Z,5.2
2022-12-11T20:42:04.468Z,5.2
2022-12-11T20:44:02.997Z,5.2
2022-12-11T20:46:06.744Z,5.2
2022-12-11T20:48:02.924Z,5.3
2022-12-11T20:50:03.313Z,5.3
2022-12-11T20:52:04.155Z,5.3
2022-12-11T20:54:03.117Z,5.3
2022-12-11T20:56:08.689Z,5.3
2022-12-11T20:58:03.094Z,5.3
2022-12-11T21:00:04.135Z,5.3
2022-12-11T21:02:04.636Z,5.3
2022-12-11T21:04:03.071Z,5.3
2022-12-11T21:06:03.757Z,5.3
2022-12-11T21:08:03.183Z,5.3
2022-12-11T21:10:03.366Z,5.3
2022-12-11T21:12:04.086Z,5.3
2022-12-11T21:14:02.988Z,5.3
2022-12-11T21:16:05.300Z,5.3
2022-12-11T21:18:03.834Z,5.4
2022-12-11T21:20:02.934Z,5.3
2022-12-11T21:22:04.025Z,5.4
2022-12-11T21:24:02.982Z,5.4
2022-12-11T21:26:04.066Z,5.4
2022-12-11T21:28:02.951Z,5.4
2022-12-11T21:30:04.958Z,5.4
2022-12-11T21:32:03.028Z,5.4
2022-12-11T21:34:04.711Z,5.4
2022-12-11T21:36:05.397Z,5.4
2022-12-11T21:38:03.061Z,5.5
2022-12-11T21:40:02.988Z,5.5
2022-12-11T21:42:03.693Z,5.6
2022-12-11T21:46:03.224Z,5.6
2022-12-11T21:48:03.768Z,5.5
2022-12-11T21:50:04.296Z,5.5
2022-12-11T21:52:03.672Z,5.5
2022-12-11T21:54:04.752Z,5.4
2022-12-11T21:56:07.211Z,5.4
2022-12-11T21:58:02.971Z,5.4
2022-12-11T22:00:03.996Z,5.4
2022-12-11T22:02:03.197Z,5.4
2022-12-11T22:04:04.510Z,5.4
2022-12-11T22:06:03.995Z,5.4
2022-12-11T22:08:03.805Z,5.4
2022-12-11T22:10:03.075Z,5.4
2022-12-11T22:12:02.950Z,5.4
2022-12-11T22:14:03.880Z,5.4
2022-12-11T22:16:03.712Z,5.4
2022-12-11T22:18:03.943Z,5.4
2022-12-11T22:20:04.083Z,5.4
2022-12-11T22:22:02.952Z,5.4
2022-12-11T22:24:03.637Z,5.4
2022-12-11T22:26:02.917Z,5.4
2022-12-11T22:28:03.272Z,5.4
2022-12-11T22:30:04.365Z,5.4
2022-12-11T22:32:04.156Z,5.4
2022-12-11T22:34:03.450Z,5.3
2022-12-11T22:36:02.992Z,5.3
2022-12-11T22:38:04.109Z,5.4
2022-12-11T22:40:03.090Z,5.4
2022-12-11T22:42:03.281Z,5.4
2022-12-11T22:44:03.118Z,5.3
2022-12-11T22:46:03.106Z,5.4
2022-12-11T22:48:03.533Z,5.4
2022-12-11T22:50:02.957Z,5.4
2022-12-11T22:52:02.937Z,5.4
2022-12-11T22:54:03.415Z,5.4
2022-12-11T22:56:05.522Z,5.4
2022-12-11T22:58:03.458Z,5.4
2022-12-11T23:00:02.947Z,5.4
2022-12-11T23:02:03.402Z,5.4
2022-12-11T23:04:03.698Z,5.4
2022-12-11T23:06:07.856Z,5.4
2022-12-11T23:08:03.199Z,5.4
2022-12-11T23:10:03.823Z,5.4
2022-12-11T23:12:03.605Z,5.4
2022-12-11T23:14:05.030Z,5.4
2022-12-11T23:16:02.904Z,5.4
2022-12-11T23:18:03.399Z,5.4
2022-12-11T23:20:05.357Z,5.4
2022-12-11T23:22:03.492Z,5.4
2022-12-11T23:24:04.045Z,5.4
2022-12-11T23:26:04.639Z,5.4
2022-12-11T23:28:03.101Z,5.4
2022-12-11T23:30:03.137Z,5.4
2022-12-11T23:32:04.685Z,5.4
2022-12-11T23:34:03.706Z,5.4
2022-12-11T23:36:04.760Z,5.4
2022-12-11T23:38:03.507Z,5.3
2022-12-11T23:40:02.967Z,5.4
2022-12-11T23:42:03.854Z,5.4
2022-12-11T23:44:03.613Z,5.3
2022-12-11T23:46:03.107Z,5.4
2022-12-11T23:48:03.098Z,5.3
2022-12-11T23:50:02.956Z,5.3
2022-12-11T23:52:03.298Z,5.3
2022-12-11T23:54:03.272Z,5.3
2022-12-11T23:56:07.116Z,5.3
2022-12-11T23:58:02.939Z,5.3
